Time;durP1;ratioP1;P1;durP2;ratioP2;P2;SDS_P1;SDS_P2;PMS_P1;PMS_P2;Temp;Humidity;BMP_temperature;BMP_pressure;BME280_temperature;BME280_humidity;BME280_pressure;Samples;Min_cycle;Max_cycle;Signal;HPM_P1;HPM_P2
2022/01/31 00:02:14;;;;;;;4.13;2.33;;;;;;;;;;4917842;29;20083;-31
2022/01/31 00:04:42;;;;;;;3.83;2.72;;;;;;;;;;4917923;29;20041;-32
2022/01/31 00:07:09;;;;;;;4.10;2.58;;;;;;;;;;4918598;29;20040;-30
2022/01/31 00:09:36;;;;;;;2.47;2.22;;;;;;;;;;4918051;29;20069;-29
2022/01/31 00:12:07;;;;;;;2.38;1.85;;;;;;;;;;4917683;29;20036;-31
2022/01/31 00:14:53;;;;;;;;;;;;;;;;;;4918141;29;20025;-29
2022/01/31 00:17:20;;;;;;;4.53;2.38;;;;;;;;;;4917864;29;19963;-32
2022/01/31 00:19:46;;;;;;;3.47;2.58;;;;;;;;;;4917814;29;20031;-31
2022/01/31 00:22:13;;;;;;;2.85;2.03;;;;;;;;;;4917665;29;20107;-31
2022/01/31 00:24:40;;;;;;;4.53;3.15;;;;;;;;;;4920660;29;20062;-31
2022/01/31 00:27:07;;;;;;;4.07;2.38;;;;;;;;;;4921323;29;20028;-32
2022/01/31 00:29:33;;;;;;;4.72;2.78;;;;;;;;;;4921561;29;20046;-35
2022/01/31 00:31:59;;;;;;;3.20;2.13;;;;;;;;;;4920919;29;20098;-32
2022/01/31 00:34:25;;;;;;;4.85;2.65;;;;;;;;;;4920946;29;20024;-30
2022/01/31 00:36:52;;;;;;;3.00;2.13;;;;;;;;;;4921380;29;20039;-31
2022/01/31 00:39:18;;;;;;;2.88;2.10;;;;;;;;;;4921357;29;20440;-31
2022/01/31 00:41:44;;;;;;;3.83;2.47;;;;;;;;;;4921077;29;20405;-34
2022/01/31 00:44:17;;;;;;;3.28;2.30;;;;;;;;;;4920750;29;20052;-33
2022/01/31 00:46:50;;;;;;;3.15;2.40;;;;;;;;;;4920715;29;20108;-32
2022/01/31 00:49:23;;;;;;;3.22;2.13;;;;;;;;;;4920711;29;20039;-32
2022/01/31 00:51:49;;;;;;;3.15;2.40;;;;;;;;;;4920614;29;20059;-30
2022/01/31 00:54:16;;;;;;;2.78;1.70;;;;;;;;;;4919975;29;20028;-31
2022/01/31 00:56:42;;;;;;;4.10;2.80;;;;;;;;;;4920728;29;20032;-32
2022/01/31 00:59:09;;;;;;;3.00;2.05;;;;;;;;;;4920759;29;20453;-31
2022/01/31 01:01:35;;;;;;;2.38;2.10;;;;;;;;;;4920482;29;20032;-32
2022/01/31 01:04:01;;;;;;;3.65;2.30;;;;;;;;;;4920334;29;20039;-31
2022/01/31 01:06:28;;;;;;;3.58;2.42;;;;;;;;;;4920238;29;20365;-33
2022/01/31 01:08:54;;;;;;;2.63;2.17;;;;;;;;;;4920596;29;20523;-32
2022/01/31 01:11:20;;;;;;;4.30;2.80;;;;;;;;;;4920323;29;20380;-31
2022/01/31 01:13:46;;;;;;;3.00;2.13;;;;;;;;;;4920123;29;20043;-32
2022/01/31 01:16:12;;;;;;;3.03;2.30;;;;;;;;;;4920446;29;20051;-31
2022/01/31 01:18:39;;;;;;;2.25;1.90;;;;;;;;;;4920183;29;20356;-32
2022/01/31 01:21:06;;;;;;;3.25;2.47;;;;;;;;;;4920409;29;20416;-32
2022/01/31 01:23:32;;;;;;;2.75;2.55;;;;;;;;;;4920317;29;20028;-30
2022/01/31 01:25:58;;;;;;;2.85;2.10;;;;;;;;;;4920108;29;20092;-31
2022/01/31 01:28:26;;;;;;;4.38;2.58;;;;;;;;;;4920281;29;20036;-31
2022/01/31 01:30:55;;;;;;;3.95;2.67;;;;;;;;;;4919078;29;20036;-31
2022/01/31 01:33:23;;;;;;;2.97;1.92;;;;;;;;;;4919879;29;20041;-34
2022/01/31 01:35:51;;;;;;;2.17;2.05;;;;;;;;;;4918873;29;20503;-32
2022/01/31 01:38:18;;;;;;;2.53;2.30;;;;;;;;;;4920094;29;20032;-30
2022/01/31 01:40:46;;;;;;;3.35;2.28;;;;;;;;;;4919738;29;20028;-30
2022/01/31 01:43:13;;;;;;;4.30;2.42;;;;;;;;;;4919938;29;20554;-33
2022/01/31 01:45:40;;;;;;;3.55;2.50;;;;;;;;;;4919688;29;20473;-30
2022/01/31 01:48:07;;;;;;;3.47;2.28;;;;;;;;;;4919892;29;20043;-32
2022/01/31 01:50:34;;;;;;;3.17;2.50;;;;;;;;;;4918625;29;20502;-30
2022/01/31 01:53:01;;;;;;;3.13;2.20;;;;;;;;;;4919501;29;20038;-31
2022/01/31 01:55:28;;;;;;;5.32;2.70;;;;;;;;;;4919460;29;20381;-30
2022/01/31 01:57:55;;;;;;;2.88;2.67;;;;;;;;;;4919726;29;20107;-31
2022/01/31 02:00:27;;;;;;;4.13;2.65;;;;;;;;;;4918480;29;20337;-30
2022/01/31 02:02:54;;;;;;;4.13;3.00;;;;;;;;;;4918502;29;20032;-32
2022/01/31 02:05:21;;;;;;;3.35;2.72;;;;;;;;;;4919300;29;20098;-31
2022/01/31 02:07:47;;;;;;;4.32;2.53;;;;;;;;;;4919293;29;20043;-31
2022/01/31 02:10:14;;;;;;;2.88;2.35;;;;;;;;;;4919489;29;20408;-31
2022/01/31 02:12:45;;;;;;;3.35;2.53;;;;;;;;;;4919138;29;20091;-31
2022/01/31 02:15:11;;;;;;;3.40;2.63;;;;;;;;;;4919368;29;20071;-32
2022/01/31 02:17:38;;;;;;;2.83;2.15;;;;;;;;;;4918182;29;20094;-31
2022/01/31 02:20:06;;;;;;;4.40;2.80;;;;;;;;;;4919066;29;20028;-30
2022/01/31 02:22:32;;;;;;;6.40;3.28;;;;;;;;;;4918937;29;20032;-30
2022/01/31 02:24:58;;;;;;;3.42;2.47;;;;;;;;;;4918989;29;20032;-31
2022/01/31 02:27:26;;;;;;;4.85;2.75;;;;;;;;;;4919161;29;20108;-30
2022/01/31 02:29:52;;;;;;;3.88;2.40;;;;;;;;;;4918927;29;20035;-32
2022/01/31 02:32:20;;;;;;;2.50;2.10;;;;;;;;;;4919304;29;20462;-30
2022/01/31 02:34:47;;;;;;;3.00;2.63;;;;;;;;;;4918693;29;20079;-32
2022/01/31 02:37:13;;;;;;;2.85;2.60;;;;;;;;;;4919039;29;20035;-31
2022/01/31 02:39:39;;;;;;;2.40;1.80;;;;;;;;;;4918738;29;20035;-30
2022/01/31 02:42:06;;;;;;;4.22;2.50;;;;;;;;;;4918887;29;20029;-32
2022/01/31 02:44:32;;;;;;;3.00;2.67;;;;;;;;;;4919444;29;20028;-32
2022/01/31 02:46:58;;;;;;;3.88;2.38;;;;;;;;;;4918713;29;20162;-32
2022/01/31 02:49:32;;;;;;;3.17;2.00;;;;;;;;;;4918600;29;20541;-31
2022/01/31 02:52:01;;;;;;;2.72;2.30;;;;;;;;;;4918797;29;20029;-30
2022/01/31 02:54:30;;;;;;;2.58;1.92;;;;;;;;;;4918487;29;20040;-32
2022/01/31 02:56:56;;;;;;;3.55;2.30;;;;;;;;;;4918730;29;20032;-32
2022/01/31 02:59:23;;;;;;;3.00;2.15;;;;;;;;;;4918760;29;20036;-31
2022/01/31 03:01:49;;;;;;;3.33;2.50;;;;;;;;;;4918951;29;20068;-30
2022/01/31 03:04:15;;;;;;;4.13;2.60;;;;;;;;;;4918429;29;20043;-32
2022/01/31 03:06:49;;;;;;;2.75;2.30;;;;;;;;;;4918634;29;20408;-30
2022/01/31 03:09:15;;;;;;;2.83;2.25;;;;;;;;;;4918645;29;20372;-31
2022/01/31 03:11:41;;;;;;;3.25;2.17;;;;;;;;;;4918348;29;20024;-31
2022/01/31 03:14:08;;;;;;;3.78;2.70;;;;;;;;;;4918452;29;20036;-32
2022/01/31 03:16:39;;;;;;;4.65;2.47;;;;;;;;;;4918259;29;20387;-30
2022/01/31 03:19:05;;;;;;;3.85;2.35;;;;;;;;;;4918553;29;20032;-33
2022/01/31 03:21:32;;;;;;;2.80;2.35;;;;;;;;;;4918505;29;20028;-30
2022/01/31 03:23:58;;;;;;;2.92;1.85;;;;;;;;;;4918475;29;20054;-31
2022/01/31 03:26:24;;;;;;;3.28;2.30;;;;;;;;;;4918493;29;20409;-31
2022/01/31 03:28:53;;;;;;;2.97;2.63;;;;;;;;;;4918222;29;20039;-31
2022/01/31 03:31:19;;;;;;;3.72;2.65;;;;;;;;;;4918143;29;20039;-31
2022/01/31 03:33:49;;;;;;;3.50;2.30;;;;;;;;;;4918101;29;20436;-31
2022/01/31 03:36:15;;;;;;;2.60;2.33;;;;;;;;;;4918563;29;20036;-31
2022/01/31 03:38:41;;;;;;;3.38;2.78;;;;;;;;;;4918353;29;20137;-30
2022/01/31 03:41:19;;;;;;;3.40;2.70;;;;;;;;;;4918523;29;20043;-31
2022/01/31 03:43:45;;;;;;;3.20;2.75;;;;;;;;;;4918008;29;20368;-31
2022/01/31 03:46:11;;;;;;;5.10;2.75;;;;;;;;;;4918028;29;20076;-32
2022/01/31 03:48:38;;;;;;;3.70;2.53;;;;;;;;;;4918275;29;20040;-31
2022/01/31 03:51:05;;;;;;;2.72;2.20;;;;;;;;;;4917998;29;20035;-30
2022/01/31 03:53:31;;;;;;;5.43;2.75;;;;;;;;;;4918470;29;20360;-30
2022/01/31 03:55:58;;;;;;;3.45;2.08;;;;;;;;;;4917876;29;20033;-32
2022/01/31 03:58:24;;;;;;;2.30;1.75;;;;;;;;;;4919161;29;20020;-32
2022/01/31 04:00:51;;;;;;;3.28;2.08;;;;;;;;;;4921580;29;20046;-31
2022/01/31 04:03:17;;;;;;;3.22;2.47;;;;;;;;;;4921569;29;20520;-31
2022/01/31 04:05:43;;;;;;;3.05;2.75;;;;;;;;;;4920561;29;20056;-31
2022/01/31 04:08:12;;;;;;;2.75;2.50;;;;;;;;;;4920506;29;20103;-31
2022/01/31 04:10:38;;;;;;;2.90;2.50;;;;;;;;;;4920232;29;20368;-31
2022/01/31 04:13:08;;;;;;;2.63;2.38;;;;;;;;;;4920148;29;20028;-32
2022/01/31 04:15:39;;;;;;;2.28;2.08;;;;;;;;;;4920037;29;20031;-30
2022/01/31 04:18:05;;;;;;;2.30;2.10;;;;;;;;;;4920365;29;20364;-32
2022/01/31 04:20:32;;;;;;;3.38;2.22;;;;;;;;;;4920343;29;20024;-31
2022/01/31 04:23:04;;;;;;;3.92;2.60;;;;;;;;;;4919958;29;20179;-31
2022/01/31 04:25:42;;;;;;;3.33;2.17;;;;;;;;;;4920289;29;20040;-31
2022/01/31 04:28:18;;;;;;;2.97;2.20;;;;;;;;;;4919968;29;20468;-32
2022/01/31 04:30:57;;;;;;;2.55;2.15;;;;;;;;;;4919903;29;20110;-29
2022/01/31 04:33:24;;;;;;;3.65;2.50;;;;;;;;;;4920322;29;20032;-30
2022/01/31 04:35:51;;;;;;;3.08;2.30;;;;;;;;;;4920026;29;20036;-31
2022/01/31 04:38:17;;;;;;;2.60;2.10;;;;;;;;;;4919745;29;20021;-30
2022/01/31 04:40:43;;;;;;;3.67;2.47;;;;;;;;;;4919676;29;20028;-31
2022/01/31 04:43:10;;;;;;;2.80;2.50;;;;;;;;;;4919653;29;20026;-32
2022/01/31 04:45:36;;;;;;;4.22;2.80;;;;;;;;;;4919948;29;20459;-32
2022/01/31 04:48:03;;;;;;;4.15;2.55;;;;;;;;;;4919845;29;20036;-31
2022/01/31 04:50:29;;;;;;;2.95;2.03;;;;;;;;;;4919598;29;20071;-32
2022/01/31 04:52:55;;;;;;;2.63;2.00;;;;;;;;;;4919722;29;20142;-31
2022/01/31 04:55:21;;;;;;;4.97;3.42;;;;;;;;;;4919644;29;20368;-30
2022/01/31 04:57:48;;;;;;;3.47;2.15;;;;;;;;;;4919448;29;20544;-30
2022/01/31 05:00:14;;;;;;;3.15;2.30;;;;;;;;;;4919420;29;20413;-32
2022/01/31 05:02:40;;;;;;;2.42;2.03;;;;;;;;;;4919495;29;20032;-31
2022/01/31 05:05:07;;;;;;;3.65;3.20;;;;;;;;;;4866877;29;1555606;-31
2022/01/31 05:07:33;;;;;;;2.63;2.42;;;;;;;;;;4920650;29;20035;-32
2022/01/31 05:09:59;;;;;;;3.20;2.30;;;;;;;;;;4920517;29;20028;-31
2022/01/31 05:12:26;;;;;;;4.35;2.33;;;;;;;;;;4920128;29;20036;-31
2022/01/31 05:14:53;;;;;;;3.85;2.08;;;;;;;;;;4920142;29;20511;-32
2022/01/31 05:17:19;;;;;;;3.22;2.20;;;;;;;;;;4920135;29;20157;-31
2022/01/31 05:19:45;;;;;;;5.22;2.53;;;;;;;;;;4920111;29;20028;-32
2022/01/31 05:22:11;;;;;;;2.85;1.90;;;;;;;;;;4920075;29;20043;-30
2022/01/31 05:24:37;;;;;;;3.13;2.20;;;;;;;;;;4920254;29;20024;-31
2022/01/31 05:27:03;;;;;;;3.13;2.50;;;;;;;;;;4920237;29;20036;-31
2022/01/31 05:29:30;;;;;;;3.38;2.33;;;;;;;;;;4920397;29;20032;-32
2022/01/31 05:31:56;;;;;;;2.75;2.38;;;;;;;;;;4919842;29;20080;-32
2022/01/31 05:34:24;;;;;;;1.73;1.55;;;;;;;;;;4919843;29;20065;-32
2022/01/31 05:36:55;;;;;;;5.10;2.72;;;;;;;;;;4919743;29;20107;-32
2022/01/31 05:39:24;;;;;;;3.67;2.17;;;;;;;;;;4919880;29;20036;-31
2022/01/31 05:41:51;;;;;;;2.53;2.30;;;;;;;;;;4919749;29;20033;-30
2022/01/31 05:44:17;;;;;;;2.78;2.13;;;;;;;;;;4919765;29;20107;-31
2022/01/31 05:46:45;;;;;;;4.00;2.75;;;;;;;;;;4919493;29;20103;-30
2022/01/31 05:49:11;;;;;;;3.80;2.15;;;;;;;;;;4919466;29;20123;-32
2022/01/31 05:51:50;;;;;;;4.60;2.65;;;;;;;;;;4919750;29;20020;-32
2022/01/31 05:54:17;;;;;;;3.30;2.15;;;;;;;;;;4919806;29;20027;-31
2022/01/31 05:56:43;;;;;;;4.55;3.05;;;;;;;;;;4919329;29;20043;-31
2022/01/31 05:59:09;;;;;;;3.58;2.30;;;;;;;;;;4919380;29;20025;-31
2022/01/31 06:04:18;;;;;;;2.70;2.00;;;;;;;;;;4818223;26;20454;-23
2022/01/31 06:06:45;;;;;;;5.47;2.42;;;;;;;;;;4957190;28;20457;-23
2022/01/31 06:09:11;;;;;;;3.58;2.17;;;;;;;;;;4957449;28;20144;-23
2022/01/31 06:11:37;;;;;;;3.63;2.40;;;;;;;;;;4957228;28;20038;-23
2022/01/31 06:14:08;;;;;;;5.88;2.25;;;;;;;;;;4938335;29;20031;-23
2022/01/31 06:16:35;;;;;;;4.38;2.25;;;;;;;;;;4937975;29;20027;-23
2022/01/31 06:19:01;;;;;;;4.20;2.63;;;;;;;;;;4938061;29;20039;-23
2022/01/31 06:21:27;;;;;;;3.85;2.75;;;;;;;;;;4937617;29;20115;-24
2022/01/31 06:23:54;;;;;;;9.73;2.42;;;;;;;;;;4937810;29;20040;-24
2022/01/31 06:26:21;;;;;;;3.38;2.25;;;;;;;;;;4938347;29;20420;-24
2022/01/31 06:28:48;;;;;;;2.28;2.08;;;;;;;;;;4938206;29;20396;-24
2022/01/31 06:31:14;;;;;;;9.82;2.72;;;;;;;;;;4937880;29;20030;-24
2022/01/31 06:33:40;;;;;;;9.00;2.53;;;;;;;;;;4937733;29;20091;-24
2022/01/31 06:36:07;;;;;;;7.03;3.00;;;;;;;;;;4937011;29;20375;-23
2022/01/31 06:38:35;;;;;;;8.07;2.95;;;;;;;;;;4937657;29;20027;-24
2022/01/31 06:41:02;;;;;;;8.32;2.10;;;;;;;;;;4938197;29;20027;-24
2022/01/31 06:43:28;;;;;;;6.22;2.53;;;;;;;;;;4937520;29;20030;-25
2022/01/31 06:45:55;;;;;;;4.88;2.38;;;;;;;;;;4937743;29;20031;-24
2022/01/31 06:48:22;;;;;;;5.75;2.20;;;;;;;;;;4937562;29;20024;-25
2022/01/31 06:50:48;;;;;;;3.78;2.50;;;;;;;;;;4936577;29;20035;-24
2022/01/31 06:53:16;;;;;;;5.35;2.38;;;;;;;;;;4937508;29;20031;-24
2022/01/31 06:55:43;;;;;;;5.78;2.20;;;;;;;;;;4937406;29;20043;-24
2022/01/31 06:58:10;;;;;;;4.55;3.10;;;;;;;;;;4937411;29;20032;-24
2022/01/31 07:00:37;;;;;;;5.07;2.50;;;;;;;;;;4936272;29;20031;-24
2022/01/31 07:03:06;;;;;;;3.50;2.50;;;;;;;;;;4937101;29;20047;-24
2022/01/31 07:05:32;;;;;;;5.75;2.75;;;;;;;;;;4937482;29;20032;-24
2022/01/31 07:07:58;;;;;;;3.20;2.25;;;;;;;;;;4937467;29;20055;-25
2022/01/31 07:10:25;;;;;;;2.60;2.00;;;;;;;;;;4937160;29;20462;-24
2022/01/31 07:12:53;;;;;;;8.00;2.63;;;;;;;;;;4937223;29;20474;-24
2022/01/31 07:15:20;;;;;;;12.27;2.70;;;;;;;;;;4937089;29;20066;-25
2022/01/31 07:17:46;;;;;;;6.47;2.75;;;;;;;;;;4937153;29;20497;-24
2022/01/31 07:20:22;;;;;;;4.05;2.55;;;;;;;;;;4937112;29;20042;-24
2022/01/31 07:22:56;;;;;;;6.00;2.63;;;;;;;;;;4937259;29;20107;-24
2022/01/31 07:25:34;;;;;;;7.82;2.38;;;;;;;;;;4937292;29;20050;-25
2022/01/31 07:28:01;;;;;;;4.47;2.35;;;;;;;;;;4937455;29;20106;-24
2022/01/31 07:30:28;;;;;;;7.20;2.75;;;;;;;;;;4937207;29;20035;-25
2022/01/31 07:32:54;;;;;;;7.63;2.70;;;;;;;;;;4937764;29;20035;-24
2022/01/31 07:35:20;;;;;;;4.55;2.40;;;;;;;;;;4941344;29;20054;-24
2022/01/31 07:37:46;;;;;;;6.38;3.10;;;;;;;;;;4941058;29;20051;-25
2022/01/31 07:40:13;;;;;;;9.43;2.22;;;;;;;;;;4940815;29;20028;-24
2022/01/31 07:42:39;;;;;;;8.02;2.50;;;;;;;;;;4940740;29;20447;-24
2022/01/31 07:45:06;;;;;;;7.55;2.53;;;;;;;;;;4940795;29;20042;-24
2022/01/31 07:47:32;;;;;;;6.60;2.47;;;;;;;;;;4941111;29;20038;-24
2022/01/31 07:49:58;;;;;;;7.18;4.07;;;;;;;;;;4941185;29;20155;-25
2022/01/31 07:52:25;;;;;;;3.67;2.10;;;;;;;;;;4940560;29;20043;-24
2022/01/31 07:54:51;;;;;;;3.67;2.55;;;;;;;;;;4940823;29;20028;-25
2022/01/31 07:57:19;;;;;;;4.22;2.90;;;;;;;;;;4940599;29;20031;-24
2022/01/31 07:59:45;;;;;;;7.40;2.80;;;;;;;;;;4940561;29;20451;-24
2022/01/31 08:02:11;;;;;;;5.95;2.65;;;;;;;;;;4940333;29;20039;-24
2022/01/31 08:04:37;;;;;;;8.95;2.83;;;;;;;;;;4940840;29;20027;-24
2022/01/31 08:07:04;;;;;;;3.63;2.80;;;;;;;;;;4940821;29;20362;-24
2022/01/31 08:09:30;;;;;;;8.50;2.63;;;;;;;;;;4940596;29;20414;-24
2022/01/31 08:11:59;;;;;;;6.20;2.80;;;;;;;;;;4940809;29;20031;-24
2022/01/31 08:14:27;;;;;;;8.80;2.45;;;;;;;;;;4940532;29;20055;-24
2022/01/31 08:16:53;;;;;;;8.02;3.05;;;;;;;;;;4940066;29;20039;-25
2022/01/31 08:19:19;;;;;;;7.93;2.63;;;;;;;;;;4939928;29;20035;-25
2022/01/31 08:21:45;;;;;;;4.78;2.75;;;;;;;;;;4938990;29;20481;-24
2022/01/31 08:24:11;;;;;;;5.38;2.45;;;;;;;;;;4940094;29;20031;-24
2022/01/31 08:26:39;;;;;;;5.25;2.33;;;;;;;;;;4940149;29;20028;-25
2022/01/31 08:29:22;;;;;;;3.30;2.30;;;;;;;;;;4940322;29;20483;-25
2022/01/31 08:31:52;;;;;;;5.00;2.50;;;;;;;;;;4939804;29;20038;-24
2022/01/31 08:34:24;;;;;;;8.60;2.55;;;;;;;;;;4939899;29;20348;-24
2022/01/31 08:36:51;;;;;;;3.65;2.15;;;;;;;;;;4939936;29;20428;-24
2022/01/31 08:39:19;;;;;;;9.63;2.40;;;;;;;;;;4939733;29;20051;-25
2022/01/31 08:41:51;;;;;;;4.45;3.05;;;;;;;;;;4939521;29;20032;-24
2022/01/31 08:44:19;;;;;;;6.43;2.55;;;;;;;;;;4939686;29;20020;-24
2022/01/31 08:46:47;;;;;;;12.43;3.97;;;;;;;;;;4939795;29;20340;-25
2022/01/31 08:49:14;;;;;;;5.00;2.65;;;;;;;;;;4939670;29;20039;-25
2022/01/31 08:51:40;;;;;;;6.82;2.72;;;;;;;;;;4939880;29;20073;-25
2022/01/31 08:54:07;;;;;;;5.10;2.33;;;;;;;;;;4939670;29;20035;-24
2022/01/31 08:56:40;;;;;;;4.30;2.17;;;;;;;;;;4939893;29;20106;-24
2022/01/31 08:59:08;;;;;;;4.95;2.45;;;;;;;;;;4939498;29;20046;-24
2022/01/31 09:01:34;;;;;;;2.63;2.10;;;;;;;;;;4939356;29;20095;-24
2022/01/31 09:04:02;;;;;;;4.43;2.42;;;;;;;;;;4939106;29;20051;-24
2022/01/31 09:06:32;;;;;;;5.70;2.38;;;;;;;;;;4939310;29;20156;-24
2022/01/31 09:08:59;;;;;;;7.03;2.50;;;;;;;;;;4939541;29;20039;-24
2022/01/31 09:11:26;;;;;;;7.40;3.30;;;;;;;;;;4938420;29;20275;-24
2022/01/31 09:13:52;;;;;;;4.57;2.38;;;;;;;;;;4939181;29;20039;-24
2022/01/31 09:16:18;;;;;;;6.82;4.90;;;;;;;;;;4939539;29;20035;-24
2022/01/31 09:18:45;;;;;;;5.97;2.88;;;;;;;;;;4939130;29;20094;-25
2022/01/31 09:21:11;;;;;;;4.70;2.30;;;;;;;;;;4939220;29;20024;-24
2022/01/31 09:23:38;;;;;;;4.13;2.28;;;;;;;;;;4939208;29;20032;-24
2022/01/31 09:26:04;;;;;;;3.88;2.88;;;;;;;;;;4938833;29;20039;-25
2022/01/31 09:28:30;;;;;;;5.13;2.72;;;;;;;;;;4938654;29;20031;-25
2022/01/31 09:30:57;;;;;;;7.28;3.50;;;;;;;;;;4937838;29;20035;-24
2022/01/31 09:33:25;;;;;;;4.28;2.42;;;;;;;;;;4939006;29;20391;-25
2022/01/31 09:35:51;;;;;;;4.65;2.38;;;;;;;;;;4937709;29;20027;-24
2022/01/31 09:38:22;;;;;;;4.82;2.50;;;;;;;;;;4938988;29;20102;-24
2022/01/31 09:40:49;;;;;;;3.88;2.55;;;;;;;;;;4939774;29;20051;-24
2022/01/31 09:51:18;;;;;;;6.82;2.33;;;;;;;;;;4939055;29;20362;-24
2022/01/31 09:53:52;;;;;;;6.80;3.28;;;;;;;;;;4939188;29;20411;-25
2022/01/31 09:56:22;;;;;;;3.78;2.60;;;;;;;;;;4938078;29;20419;-24
2022/01/31 09:58:49;;;;;;;8.77;3.00;;;;;;;;;;4938349;29;20019;-25
2022/01/31 10:01:16;;;;;;;6.45;2.78;;;;;;;;;;4938633;29;20469;-25
2022/01/31 10:03:49;;;;;;;9.60;2.60;;;;;;;;;;4937307;29;20415;-25
2022/01/31 10:06:25;;;;;;;5.78;2.75;;;;;;;;;;4938136;29;20067;-25
2022/01/31 10:09:04;;;;;;;6.22;2.60;;;;;;;;;;4938300;29;20336;-24
2022/01/31 10:11:38;;;;;;;12.18;3.25;;;;;;;;;;4938603;29;20059;-25
2022/01/31 10:17:05;;;;;;;9.23;2.97;;;;;;;;;;4938501;29;20103;-24
2022/01/31 10:19:38;;;;;;;6.18;2.60;;;;;;;;;;4938378;29;20036;-25
2022/01/31 10:22:06;;;;;;;5.93;2.45;;;;;;;;;;4938244;29;20016;-24
2022/01/31 10:24:34;;;;;;;5.95;2.95;;;;;;;;;;4937138;29;20051;-24
2022/01/31 10:27:11;;;;;;;5.80;2.58;;;;;;;;;;4936955;29;20039;-24
2022/01/31 10:29:38;;;;;;;12.48;3.70;;;;;;;;;;4938132;29;20362;-24
2022/01/31 10:32:04;;;;;;;14.70;3.28;;;;;;;;;;4937695;29;20028;-24
2022/01/31 10:34:31;;;;;;;11.23;3.17;;;;;;;;;;4937993;29;20042;-24
2022/01/31 10:37:05;;;;;;;11.65;3.42;;;;;;;;;;4938268;29;20071;-24
2022/01/31 10:45:31;;;;;;;6.20;2.97;;;;;;;;;;4937815;29;20430;-24
2022/01/31 10:51:20;;;;;;;6.55;3.15;;;;;;;;;;4937800;29;20045;-24
2022/01/31 10:53:41;;;;;;;7.57;2.53;;;;;;;;;;4937271;29;20048;-24
2022/01/31 10:56:07;;;;;;;4.18;2.38;;;;;;;;;;4937373;29;20046;-25
2022/01/31 10:58:34;;;;;;;4.70;2.95;;;;;;;;;;4936441;29;20027;-25
2022/01/31 11:01:13;;;;;;;17.00;3.40;;;;;;;;;;4937350;29;20032;-25
2022/01/31 11:03:40;;;;;;;8.45;3.42;;;;;;;;;;4937266;29;20059;-25
2022/01/31 11:06:10;;;;;;;7.82;3.30;;;;;;;;;;4937259;29;20046;-25
2022/01/31 11:08:36;;;;;;;9.25;3.42;;;;;;;;;;4937334;29;20110;-25
2022/01/31 11:11:02;;;;;;;8.10;3.10;;;;;;;;;;4937442;29;20059;-25
2022/01/31 11:13:31;;;;;;;6.85;3.10;;;;;;;;;;4937173;29;20095;-25
2022/01/31 11:15:58;;;;;;;5.57;3.42;;;;;;;;;;4937094;29;20023;-26
2022/01/31 11:18:25;;;;;;;6.53;2.63;;;;;;;;;;4937052;29;20359;-23
2022/01/31 11:20:56;;;;;;;11.23;3.40;;;;;;;;;;4937138;29;20032;-24
2022/01/31 11:23:23;;;;;;;8.25;2.63;;;;;;;;;;4937225;29;20451;-24
2022/01/31 11:25:54;;;;;;;5.47;2.60;;;;;;;;;;4936918;29;20034;-24
2022/01/31 11:28:21;;;;;;;7.72;2.80;;;;;;;;;;4937380;29;20051;-24
2022/01/31 11:30:47;;;;;;;14.23;3.58;;;;;;;;;;4936913;29;20032;-24
2022/01/31 11:33:14;;;;;;;5.20;3.03;;;;;;;;;;4936906;29;20028;-24
2022/01/31 11:35:40;;;;;;;7.10;2.80;;;;;;;;;;4937108;29;20099;-25
2022/01/31 11:38:06;;;;;;;6.15;3.30;;;;;;;;;;4936811;29;20032;-24
2022/01/31 11:40:33;;;;;;;6.45;3.33;;;;;;;;;;4937103;29;20343;-24
2022/01/31 11:43:01;;;;;;;8.63;3.22;;;;;;;;;;4935699;29;20035;-25
2022/01/31 11:45:28;;;;;;;10.70;3.67;;;;;;;;;;4936918;29;20090;-25
2022/01/31 11:47:56;;;;;;;7.13;2.65;;;;;;;;;;4936922;29;20031;-24
2022/01/31 11:50:24;;;;;;;6.68;3.42;;;;;;;;;;4937019;29;20103;-25
2022/01/31 11:52:59;;;;;;;5.68;3.05;;;;;;;;;;4936690;29;20107;-25
2022/01/31 11:55:29;;;;;;;13.32;4.15;;;;;;;;;;4936971;29;20119;-25
2022/01/31 11:57:57;;;;;;;9.80;3.20;;;;;;;;;;4936906;29;20082;-24
2022/01/31 12:00:24;;;;;;;6.47;3.08;;;;;;;;;;4935798;29;20471;-24
2022/01/31 12:02:54;;;;;;;8.13;2.83;;;;;;;;;;4936350;29;20090;-25
2022/01/31 12:05:26;;;;;;;7.40;3.00;;;;;;;;;;4936884;29;20099;-24
2022/01/31 12:08:07;;;;;;;10.15;3.13;;;;;;;;;;4936610;29;20478;-25
2022/01/31 12:10:39;;;;;;;4.78;2.63;;;;;;;;;;4936721;29;20027;-24
2022/01/31 12:15:50;;;;;;;6.32;3.22;;;;;;;;;;4936592;29;20040;-25
2022/01/31 12:23:54;;;;;;;12.13;3.15;;;;;;;;;;4940394;29;20079;-24
2022/01/31 12:26:29;;;;;;;8.20;3.15;;;;;;;;;;4940361;29;20035;-24
2022/01/31 12:28:56;;;;;;;6.22;4.05;;;;;;;;;;4940100;29;20035;-24
2022/01/31 12:31:30;;;;;;;7.57;3.78;;;;;;;;;;4939946;29;20035;-24
2022/01/31 12:33:57;;;;;;;9.02;3.03;;;;;;;;;;4939994;29;20058;-24
2022/01/31 12:36:46;;;;;;;8.57;3.53;;;;;;;;;;4940046;29;20455;-24
2022/01/31 12:39:24;;;;;;;7.75;2.83;;;;;;;;;;4939779;29;20053;-24
2022/01/31 12:41:59;;;;;;;10.20;4.50;;;;;;;;;;4939626;29;20042;-24
2022/01/31 12:44:35;;;;;;;7.70;2.75;;;;;;;;;;4939990;29;20059;-24
2022/01/31 12:47:20;;;;;;;7.32;3.22;;;;;;;;;;4939642;29;20160;-25
2022/01/31 12:50:06;;;;;;;8.45;3.00;;;;;;;;;;4939927;29;20082;-25
2022/01/31 12:52:36;;;;;;;4.85;3.00;;;;;;;;;;4939437;29;20043;-25
2022/01/31 12:55:12;;;;;;;5.27;3.80;;;;;;;;;;4939556;29;20043;-24
2022/01/31 12:57:52;;;;;;;7.22;3.53;;;;;;;;;;4939627;29;20058;-25
2022/01/31 13:00:38;;;;;;;9.02;3.17;;;;;;;;;;4939719;29;20024;-25
2022/01/31 13:03:04;;;;;;;10.75;3.40;;;;;;;;;;4939408;29;20048;-25
2022/01/31 13:05:34;;;;;;;8.02;3.80;;;;;;;;;;4939467;29;20363;-25
2022/01/31 13:08:01;;;;;;;11.82;3.53;;;;;;;;;;4939621;29;20036;-25
2022/01/31 13:10:37;;;;;;;8.70;3.38;;;;;;;;;;4939306;29;20027;-25
2022/01/31 13:13:04;;;;;;;17.52;3.97;;;;;;;;;;4939433;29;20023;-25
2022/01/31 13:15:30;;;;;;;16.75;3.30;;;;;;;;;;4939132;29;20035;-25
2022/01/31 13:18:10;;;;;;;6.40;3.58;;;;;;;;;;4939130;29;20027;-25
2022/01/31 13:20:38;;;;;;;10.65;4.00;;;;;;;;;;4938032;29;20103;-25
2022/01/31 13:23:04;;;;;;;20.15;4.28;;;;;;;;;;4939004;29;20032;-25
2022/01/31 13:25:31;;;;;;;10.68;3.80;;;;;;;;;;4939287;29;20488;-25
2022/01/31 13:27:58;;;;;;;13.50;3.10;;;;;;;;;;4937846;29;20038;-25
2022/01/31 13:30:30;;;;;;;24.83;6.22;;;;;;;;;;4938439;29;20162;-25
2022/01/31 13:32:57;;;;;;;14.88;4.00;;;;;;;;;;4938915;29;20430;-25
2022/01/31 13:35:24;;;;;;;14.40;3.80;;;;;;;;;;4938981;29;20090;-25
2022/01/31 13:38:02;;;;;;;16.80;4.45;;;;;;;;;;4937953;29;20028;-25
2022/01/31 13:40:29;;;;;;;9.68;3.92;;;;;;;;;;4937750;29;20098;-25
2022/01/31 13:43:11;;;;;;;11.27;4.32;;;;;;;;;;4939043;29;20043;-25
2022/01/31 13:45:46;;;;;;;11.52;3.60;;;;;;;;;;4939437;29;20032;-25
2022/01/31 13:48:27;;;;;;;18.50;4.15;;;;;;;;;;4938597;29;20066;-25
2022/01/31 13:51:00;;;;;;;12.50;4.45;;;;;;;;;;4939351;29;20023;-25
2022/01/31 13:53:34;;;;;;;12.88;3.22;;;;;;;;;;4938598;29;20051;-25
2022/01/31 13:56:00;;;;;;;17.70;6.10;;;;;;;;;;4938797;29;20035;-25
2022/01/31 13:58:28;;;;;;;20.80;4.63;;;;;;;;;;4938516;29;20028;-25
2022/01/31 14:00:54;;;;;;;13.82;3.85;;;;;;;;;;4937513;29;20035;-25
2022/01/31 14:03:21;;;;;;;12.02;3.72;;;;;;;;;;4938179;29;20094;-25
2022/01/31 14:05:54;;;;;;;13.15;4.03;;;;;;;;;;4938499;29;20027;-26
2022/01/31 14:08:28;;;;;;;9.15;3.58;;;;;;;;;;4938380;29;20043;-25
2022/01/31 14:11:06;;;;;;;17.98;3.92;;;;;;;;;;4938884;29;20039;-25
2022/01/31 14:13:34;;;;;;;15.60;4.20;;;;;;;;;;4938223;29;20408;-25
2022/01/31 14:16:01;;;;;;;16.27;4.22;;;;;;;;;;4938190;29;20028;-25
2022/01/31 14:18:30;;;;;;;14.80;4.63;;;;;;;;;;4938042;29;20095;-25
2022/01/31 14:20:56;;;;;;;11.50;4.03;;;;;;;;;;4937913;29;20023;-25
2022/01/31 14:23:23;;;;;;;16.70;4.05;;;;;;;;;;4938033;29;20042;-25
2022/01/31 14:25:51;;;;;;;17.38;4.38;;;;;;;;;;4937119;29;20048;-24
2022/01/31 14:28:18;;;;;;;16.30;4.75;;;;;;;;;;4938519;29;20035;-25
2022/01/31 14:30:45;;;;;;;16.73;3.47;;;;;;;;;;4936993;29;20126;-25
2022/01/31 14:33:12;;;;;;;12.73;4.45;;;;;;;;;;4937701;29;20031;-25
2022/01/31 14:35:38;;;;;;;13.93;4.22;;;;;;;;;;4937635;29;20043;-24
2022/01/31 14:38:21;;;;;;;15.07;3.67;;;;;;;;;;4938138;29;20027;-25
2022/01/31 14:47:16;;;;;;;13.07;5.10;;;;;;;;;;4937984;29;20367;-25
2022/01/31 14:49:12;;;;;;;20.92;6.25;;;;;;;;;;4936283;29;20428;-25
2022/01/31 14:51:39;;;;;;;16.17;4.60;;;;;;;;;;4936455;29;20036;-25
2022/01/31 14:54:07;;;;;;;16.95;4.45;;;;;;;;;;4937438;29;20067;-25
2022/01/31 14:56:34;;;;;;;13.98;5.03;;;;;;;;;;4936486;29;20083;-25
2022/01/31 14:59:01;;;;;;;18.92;5.07;;;;;;;;;;4937385;29;20039;-25
2022/01/31 15:01:28;;;;;;;13.50;4.68;;;;;;;;;;4937455;29;20038;-25
2022/01/31 15:03:54;;;;;;;21.83;4.05;;;;;;;;;;4937264;29;20044;-25
2022/01/31 15:06:21;;;;;;;19.95;5.20;;;;;;;;;;4937409;29;20059;-25
2022/01/31 15:08:47;;;;;;;13.52;4.97;;;;;;;;;;4936390;29;20032;-25
2022/01/31 15:11:14;;;;;;;13.75;4.82;;;;;;;;;;4937359;29;20028;-25
2022/01/31 15:13:41;;;;;;;19.60;5.43;;;;;;;;;;4937221;29;20071;-25
2022/01/31 15:16:08;;;;;;;13.15;4.10;;;;;;;;;;4937381;29;20038;-25
2022/01/31 15:18:39;;;;;;;13.48;5.03;;;;;;;;;;4937287;29;20027;-25
2022/01/31 15:21:06;;;;;;;13.30;4.97;;;;;;;;;;4937820;29;20427;-25
2022/01/31 15:23:38;;;;;;;16.83;4.22;;;;;;;;;;4937185;29;20028;-25
2022/01/31 15:26:06;;;;;;;12.52;4.40;;;;;;;;;;4937585;29;20028;-25